Time;durP1;ratioP1;P1;durP2;ratioP2;P2;SDS_P1;SDS_P2;PMS_P1;PMS_P2;Temp;Humidity;BMP_temperature;BMP_pressure;BME280_temperature;BME280_humidity;BME280_pressure;Samples;Min_cycle;Max_cycle;Signal;HPM_P1;HPM_P2
2022/11/25 00:01:13;;;;;;;2.75;2.55;;;;;;;6.74;61.54;94694.63;5015416;28;20191;-72
2022/11/25 00:03:40;;;;;;;2.75;2.40;;;;;;;6.79;61.73;94706.50;5015242;28;20207;-72
2022/11/25 00:06:11;;;;;;;2.50;2.30;;;;;;;6.80;61.50;94703.44;5015584;28;20279;-71
2022/11/25 00:08:38;;;;;;;2.50;2.30;;;;;;;6.82;61.16;94700.34;5016411;28;20253;-71
2022/11/25 00:11:07;;;;;;;2.42;2.22;;;;;;;6.82;61.23;94711.31;5016740;28;20199;-71
2022/11/25 00:13:35;;;;;;;2.60;2.40;;;;;;;6.78;61.11;94704.91;5016711;28;20187;-71
2022/11/25 00:16:03;;;;;;;2.80;2.60;;;;;;;6.77;60.72;94712.34;5015388;28;20309;-71
2022/11/25 00:18:30;;;;;;;2.83;2.50;;;;;;;6.68;61.20;94711.59;5015037;28;20630;-72
2022/11/25 00:20:57;;;;;;;2.50;2.30;;;;;;;6.67;60.83;94710.81;5028176;28;20673;-72
2022/11/25 00:23:23;;;;;;;2.28;2.17;;;;;;;6.71;60.83;94709.00;5034941;28;20207;-72
2022/11/25 00:25:50;;;;;;;2.80;2.60;;;;;;;6.66;61.47;94706.47;5018291;28;20249;-71
2022/11/25 00:28:18;;;;;;;2.85;2.65;;;;;;;6.71;61.46;94724.63;5018046;28;20264;-71
2022/11/25 00:30:45;;;;;;;3.00;2.80;;;;;;;6.67;61.65;94719.03;5035467;28;20197;-72
2022/11/25 00:33:12;;;;;;;2.97;2.78;;;;;;;6.64;61.28;94713.41;5018127;28;20200;-71
2022/11/25 00:35:39;;;;;;;3.22;3.03;;;;;;;6.66;61.50;94727.59;5034931;28;20493;-72
2022/11/25 00:38:05;;;;;;;3.38;3.00;;;;;;;6.65;61.83;94720.53;5017657;28;20219;-72
2022/11/25 00:40:32;;;;;;;3.22;3.00;;;;;;;6.65;61.96;94720.53;5017855;28;20194;-71
2022/11/25 00:45:45;;;;;;;3.40;3.15;;;;;;;6.66;62.17;94717.44;5019049;28;20194;-71
2022/11/25 00:48:11;;;;;;;3.30;3.10;;;;;;;6.66;62.28;94719.38;5018685;28;20190;-71
2022/11/25 00:50:38;;;;;;;3.33;3.08;;;;;;;6.67;62.22;94715.50;5019223;28;20194;-71
2022/11/25 00:53:05;;;;;;;3.42;3.13;;;;;;;6.68;62.27;94717.09;5035381;28;20186;-71
2022/11/25 00:56:11;;;;;;;5.20;3.17;;;;;;;6.65;61.97;94717.78;5037532;28;20190;-72
2022/11/25 00:58:19;;;;;;;3.13;2.92;;;;;;;6.66;62.23;94716.63;5038280;28;20194;-71
2022/11/25 01:00:47;;;;;;;3.20;2.90;;;;;;;6.66;61.87;94716.63;5021511;28;20205;-71
2022/11/25 01:03:14;;;;;;;3.40;3.10;;;;;;;6.69;61.73;94715.97;5021409;28;20209;-71
2022/11/25 01:05:41;;;;;;;3.00;2.80;;;;;;;6.65;61.59;94723.28;5021465;28;20551;-71
2022/11/25 01:08:08;;;;;;;3.10;2.90;;;;;;;6.60;62.31;94720.72;5021270;28;20592;-72
2022/11/25 01:10:35;;;;;;;3.08;2.88;;;;;;;6.64;62.17;94721.66;5021473;28;20198;-71
2022/11/25 01:13:02;;;;;;;3.20;2.90;;;;;;;6.60;62.18;94718.78;5038837;28;20193;-71
2022/11/25 01:15:28;;;;;;;3.33;3.10;;;;;;;6.64;61.81;94725.19;5021576;28;20194;-71
2022/11/25 01:17:59;;;;;;;3.05;2.80;;;;;;;6.64;61.96;94719.69;5038996;28;20206;-71
2022/11/25 01:20:26;;;;;;;2.90;2.70;;;;;;;6.61;62.11;94722.31;5017691;28;20565;-72
2022/11/25 01:22:53;;;;;;;3.08;2.88;;;;;;;6.66;62.43;94716.63;5018607;28;20209;-72
2022/11/25 01:25:20;;;;;;;3.45;3.15;;;;;;;6.65;61.86;94715.03;5018872;28;20261;-71
2022/11/25 01:27:47;;;;;;;2.95;2.75;;;;;;;6.65;62.19;94718.59;5018668;28;20179;-72
2022/11/25 01:30:15;;;;;;;3.20;3.00;;;;;;;6.64;62.13;94716.97;5018809;28;20218;-72
2022/11/25 01:32:42;;;;;;;2.72;2.53;;;;;;;6.63;61.97;94707.16;5018053;28;20195;-72
2022/11/25 01:35:14;;;;;;;2.65;2.55;;;;;;;6.66;61.83;94711.16;5018763;28;20179;-72
2022/11/25 01:37:40;;;;;;;3.15;2.58;;;;;;;6.69;61.78;94705.00;5018494;28;20376;-71
2022/11/25 01:40:09;;;;;;;2.70;2.50;;;;;;;6.73;61.20;94705.94;5018629;28;20508;-71
2022/11/25 01:42:43;;;;;;;2.70;2.42;;;;;;;6.70;61.36;94701.91;5018286;28;20253;-71
2022/11/25 01:45:36;;;;;;;2.58;2.38;;;;;;;6.70;61.31;94704.66;5017998;28;20206;-71
2022/11/25 01:48:11;;;;;;;2.33;2.22;;;;;;;6.70;60.80;94682.72;5018039;28;20286;-72
2022/11/25 01:50:42;;;;;;;2.50;2.30;;;;;;;6.71;60.83;94683.53;5018210;28;20272;-71
2022/11/25 01:53:10;;;;;;;2.40;2.20;;;;;;;6.72;60.73;94675.00;5018437;28;20187;-72
2022/11/25 01:55:40;;;;;;;2.20;2.10;;;;;;;6.75;60.37;94681.72;5033777;28;20249;-71
2022/11/25 01:58:11;;;;;;;2.40;2.30;;;;;;;6.77;60.17;94673.97;5018251;28;20269;-71
2022/11/25 02:00:38;;;;;;;2.67;2.47;;;;;;;6.75;59.99;94671.56;5018007;28;20257;-71
2022/11/25 02:03:07;;;;;;;2.10;2.00;;;;;;;6.74;60.18;94682.88;5017417;28;20202;-71
2022/11/25 02:05:42;;;;;;;2.60;2.40;;;;;;;6.76;59.92;94688.81;5017226;28;20207;-71
2022/11/25 02:08:21;;;;;;;2.60;2.40;;;;;;;6.75;60.26;94685.28;5015868;28;20230;-71
2022/11/25 02:10:50;;;;;;;2.35;2.15;;;;;;;6.72;59.90;94696.91;5033800;28;20499;-71
2022/11/25 02:13:17;;;;;;;2.40;2.20;;;;;;;6.71;60.19;94694.50;5018004;28;20194;-71
2022/11/25 02:15:47;;;;;;;2.15;2.05;;;;;;;6.70;59.70;94704.66;5017214;28;20223;-71
2022/11/25 02:18:16;;;;;;;2.05;1.95;;;;;;;6.70;59.89;94706.59;5017832;28;20207;-71
2022/11/25 02:20:44;;;;;;;2.05;1.95;;;;;;;6.64;59.61;94700.50;5016530;28;20242;-71
2022/11/25 02:23:24;;;;;;;2.10;1.90;;;;;;;6.64;59.84;94699.72;5016842;28;20538;-71
2022/11/25 02:25:57;;;;;;;2.30;2.10;;;;;;;6.67;59.67;94699.06;5017405;28;20191;-71
2022/11/25 02:28:27;;;;;;;2.28;2.17;;;;;;;6.67;59.51;94705.34;5017679;28;20188;-72
2022/11/25 02:30:55;;;;;;;2.33;2.20;;;;;;;6.63;58.96;94696.19;5017286;28;20274;-71
2022/11/25 02:33:23;;;;;;;2.30;2.10;;;;;;;6.59;59.35;94708.97;5016654;28;20206;-71
2022/11/25 02:35:53;;;;;;;2.17;2.00;;;;;;;6.60;58.91;94705.06;5033064;28;20198;-71
2022/11/25 02:38:24;;;;;;;1.80;1.70;;;;;;;6.61;59.21;94711.34;5015108;28;20245;-71
2022/11/25 02:41:07;;;;;;;2.30;2.20;;;;;;;6.59;59.27;94705.41;5016665;28;20219;-71
2022/11/25 02:43:36;;;;;;;2.15;2.05;;;;;;;6.59;58.93;94698.00;5017440;28;20187;-71
2022/11/25 02:46:06;;;;;;;2.20;2.00;;;;;;;6.63;58.88;94700.88;5016656;28;20199;-71
2022/11/25 02:48:36;;;;;;;2.28;2.17;;;;;;;6.61;58.77;94701.22;5016948;28;20211;-71
2022/11/25 02:51:05;;;;;;;2.50;2.30;;;;;;;6.63;58.76;94698.13;5016539;28;20257;-71
2022/11/25 02:53:33;;;;;;;2.38;2.17;;;;;;;6.66;58.96;94705.69;5016697;28;20543;-71
2022/11/25 02:56:02;;;;;;;2.53;2.33;;;;;;;6.64;59.15;94714.22;5016061;28;20657;-73
2022/11/25 02:58:30;;;;;;;2.50;2.30;;;;;;;6.67;59.17;94710.81;5032330;28;20215;-73
2022/11/25 03:00:59;;;;;;;2.40;2.25;;;;;;;6.67;59.03;94715.50;5016752;28;20194;-72
2022/11/25 03:03:27;;;;;;;2.42;2.30;;;;;;;6.68;59.34;94720.66;5016865;28;20207;-72
2022/11/25 03:05:56;;;;;;;2.35;2.15;;;;;;;6.66;59.40;94720.19;5016420;28;20198;-72
2022/11/25 03:08:24;;;;;;;2.60;2.40;;;;;;;6.67;59.67;94726.47;5016046;28;20198;-72
2022/11/25 03:10:52;;;;;;;3.55;2.45;;;;;;;6.61;59.97;94728.63;5016448;28;20206;-72
2022/11/25 03:13:26;;;;;;;2.40;2.30;;;;;;;6.63;59.78;94726.31;5016070;28;20203;-72
2022/11/25 03:15:54;;;;;;;2.70;2.50;;;;;;;6.65;59.84;94729.53;5015989;28;20199;-72
2022/11/25 03:18:24;;;;;;;2.75;2.53;;;;;;;6.66;60.60;94728.41;5016290;28;20207;-72
2022/11/25 03:20:52;;;;;;;2.80;2.60;;;;;;;6.67;60.69;94737.41;5027214;28;20237;-72
2022/11/25 03:23:19;;;;;;;2.65;2.45;;;;;;;6.63;60.70;94740.03;5019246;28;20202;-72
2022/11/25 03:25:47;;;;;;;2.78;2.55;;;;;;;6.57;61.18;94738.63;5036201;28;20198;-71
2022/11/25 03:28:14;;;;;;;2.88;2.60;;;;;;;6.54;61.45;94742.06;5036302;28;20252;-71
2022/11/25 03:30:44;;;;;;;2.80;2.60;;;;;;;6.58;61.55;94742.19;5035999;28;20187;-71
2022/11/25 03:33:12;;;;;;;3.20;2.90;;;;;;;6.58;61.79;94756.69;5036422;28;20195;-72
2022/11/25 03:35:41;;;;;;;3.00;2.80;;;;;;;6.56;62.36;94758.94;5036281;28;20210;-72
2022/11/25 03:38:09;;;;;;;3.10;2.90;;;;;;;6.56;62.41;94755.41;5034442;28;20222;-72
2022/11/25 03:40:36;;;;;;;2.97;2.78;;;;;;;6.53;62.86;94759.63;5036244;28;20182;-72
2022/11/25 03:43:03;;;;;;;2.83;2.63;;;;;;;6.49;62.77;94773.19;5018921;28;20206;-72
2022/11/25 03:45:30;;;;;;;2.80;2.60;;;;;;;6.48;63.09;94759.81;5018718;28;20213;-72
2022/11/25 03:47:58;;;;;;;3.08;2.88;;;;;;;6.50;62.68;94763.03;5019054;28;20198;-73
2022/11/25 03:50:26;;;;;;;3.03;2.72;;;;;;;6.46;63.65;94767.56;5036222;28;20198;-72
2022/11/25 03:52:54;;;;;;;2.80;2.60;;;;;;;6.47;63.35;94777.41;5019243;28;20190;-72
2022/11/25 03:55:34;;;;;;;2.60;2.40;;;;;;;6.37;63.54;94773.13;5018568;28;20198;-72
2022/11/25 03:58:01;;;;;;;3.05;2.38;;;;;;;6.40;63.56;94769.72;5018242;28;20226;-72
2022/11/25 04:00:29;;;;;;;2.40;2.20;;;;;;;6.40;63.73;94768.91;5018525;28;20275;-72
2022/11/25 04:03:01;;;;;;;2.10;2.00;;;;;;;6.40;63.92;94782.63;5018291;28;20190;-71
2022/11/25 04:05:29;;;;;;;2.20;2.10;;;;;;;6.43;63.70;94785.50;5018191;28;20289;-71
2022/11/25 04:07:57;;;;;;;2.40;2.30;;;;;;;6.43;63.58;94779.22;5018418;28;20198;-71
2022/11/25 04:10:25;;;;;;;2.42;2.22;;;;;;;6.40;63.41;94788.88;5018235;28;20213;-72
2022/11/25 04:13:02;;;;;;;2.33;2.22;;;;;;;6.36;63.27;94787.97;5035419;28;20175;-71
2022/11/25 04:15:29;;;;;;;2.00;1.90;;;;;;;6.38;63.52;94790.34;5018098;28;20199;-71
2022/11/25 04:17:56;;;;;;;1.90;1.80;;;;;;;6.37;63.23;94796.97;5018248;28;20561;-72
2022/11/25 04:20:28;;;;;;;2.10;2.00;;;;;;;6.35;63.63;94804.72;5031451;28;20237;-71
2022/11/25 04:22:56;;;;;;;2.20;2.10;;;;;;;6.30;63.60;94792.00;5015236;28;20207;-72
2022/11/25 04:25:25;;;;;;;2.08;1.98;;;;;;;6.31;63.65;94796.34;5016022;28;20203;-71
2022/11/25 04:27:56;;;;;;;1.98;1.88;;;;;;;6.31;63.35;94801.81;5017830;28;20213;-70
2022/11/25 04:30:24;;;;;;;2.33;2.13;;;;;;;6.31;63.63;94793.63;5017774;28;20213;-70
2022/11/25 04:32:55;;;;;;;2.20;2.10;;;;;;;6.27;63.39;94804.44;5015129;28;20206;-71
2022/11/25 04:35:25;;;;;;;2.13;2.03;;;;;;;6.27;63.90;94807.16;5016850;28;20203;-72
2022/11/25 04:37:53;;;;;;;2.35;2.25;;;;;;;6.27;63.68;94800.91;5016740;28;20211;-70
2022/11/25 04:40:24;;;;;;;2.15;2.03;;;;;;;6.26;63.32;94813.78;5017725;28;20226;-70
2022/11/25 04:42:54;;;;;;;2.33;2.22;;;;;;;6.29;63.62;94814.28;5017819;28;20705;-70
2022/11/25 04:45:23;;;;;;;2.13;2.03;;;;;;;6.30;63.35;94810.41;5017271;28;20199;-70
2022/11/25 04:47:53;;;;;;;1.70;1.60;;;;;;;6.29;63.61;94804.13;5017317;28;20199;-70
2022/11/25 04:50:23;;;;;;;1.90;1.80;;;;;;;6.28;63.10;94816.19;5018278;28;20586;-70
2022/11/25 04:52:56;;;;;;;2.05;1.90;;;;;;;6.28;63.62;94818.94;5017923;28;20199;-70
2022/11/25 04:55:25;;;;;;;2.20;2.00;;;;;;;6.30;63.19;94816.66;5018158;28;20187;-70
2022/11/25 04:57:54;;;;;;;1.98;1.88;;;;;;;6.25;63.06;94825.88;5017073;28;20227;-70
2022/11/25 05:00:21;;;;;;;2.30;2.10;;;;;;;6.24;62.78;94829.75;5018128;28;20199;-70
2022/11/25 05:02:49;;;;;;;2.33;2.22;;;;;;;6.19;63.33;94840.91;5016387;28;20226;-70
2022/11/25 05:05:23;;;;;;;2.35;2.25;;;;;;;6.17;63.05;94840.44;5016021;28;20217;-70
2022/11/25 05:07:53;;;;;;;2.10;2.00;;;;;;;6.14;63.50;94846.56;5016808;28;20256;-70
2022/11/25 05:10:25;;;;;;;1.77;1.67;;;;;;;6.13;63.16;94852.34;5016378;28;20203;-70
2022/11/25 05:12:53;;;;;;;1.60;1.50;;;;;;;6.12;63.24;94848.81;5015728;28;20218;-71
2022/11/25 05:15:21;;;;;;;2.35;1.80;;;;;;;6.15;63.26;94855.59;5030776;28;20195;-71
2022/11/25 05:17:49;;;;;;;1.77;1.63;;;;;;;6.15;63.02;94861.88;5014584;28;20215;-71
2022/11/25 05:20:18;;;;;;;1.80;1.70;;;;;;;6.14;62.67;94867.69;5020642;28;20571;-71
2022/11/25 05:22:45;;;;;;;2.13;2.03;;;;;;;6.14;62.69;94878.63;5034144;28;20297;-72
2022/11/25 05:25:15;;;;;;;1.83;1.73;;;;;;;6.17;63.13;94880.69;5017732;28;20202;-72
2022/11/25 05:27:42;;;;;;;1.80;1.70;;;;;;;6.20;62.44;94891.00;5035091;28;20249;-73
2022/11/25 05:30:12;;;;;;;1.83;1.73;;;;;;;6.20;62.17;94893.72;5017555;28;20210;-72
2022/11/25 05:32:44;;;;;;;1.98;1.88;;;;;;;6.20;62.65;94893.72;5017193;28;20205;-72
2022/11/25 05:35:15;;;;;;;2.50;2.30;;;;;;;6.23;62.43;94893.88;5017218;28;20190;-73
2022/11/25 05:37:46;;;;;;;2.50;2.30;;;;;;;6.26;61.95;94903.38;5017498;28;20320;-72
2022/11/25 05:40:21;;;;;;;2.20;2.00;;;;;;;6.30;61.63;94911.75;5017331;28;20292;-73
2022/11/25 05:42:51;;;;;;;2.88;1.90;;;;;;;6.29;62.04;94915.63;5020702;28;20209;-72
2022/11/25 05:45:22;;;;;;;2.33;2.13;;;;;;;6.32;61.65;94918.50;5020941;28;20209;-72
2022/11/25 05:47:53;;;;;;;1.92;1.83;;;;;;;6.31;61.83;94927.81;5020936;28;20179;-72
2022/11/25 05:50:23;;;;;;;1.90;1.80;;;;;;;6.29;61.70;94932.06;5038134;28;20198;-72
2022/11/25 05:52:54;;;;;;;2.00;1.90;;;;;;;6.31;61.43;94938.00;5038215;28;20181;-72
2022/11/25 05:55:23;;;;;;;1.90;1.80;;;;;;;6.31;61.03;94927.03;5037773;28;20218;-72
2022/11/25 05:57:56;;;;;;;2.28;2.08;;;;;;;6.37;60.99;94937.47;5020418;28;20217;-72
2022/11/25 06:00:25;;;;;;;2.15;2.05;;;;;;;6.39;61.10;94939.88;5037993;28;20205;-73
2022/11/25 06:02:53;;;;;;;2.22;1.83;;;;;;;6.37;60.68;94945.69;5038000;28;20186;-73
2022/11/25 06:05:24;;;;;;;2.10;2.00;;;;;;;6.38;60.57;94939.06;5021043;28;20252;-73
2022/11/25 06:07:54;;;;;;;2.70;2.50;;;;;;;6.40;60.24;94947.78;5037862;28;20197;-73
2022/11/25 06:10:29;;;;;;;2.80;2.60;;;;;;;6.41;60.50;94951.31;5020155;28;20197;-73
2022/11/25 06:12:58;;;;;;;2.22;2.10;;;;;;;6.41;60.23;94960.34;5020396;28;20186;-72
2022/11/25 06:15:29;;;;;;;2.33;1.98;;;;;;;6.43;59.87;94957.28;5036706;28;20611;-73
2022/11/25 06:17:59;;;;;;;2.10;2.00;;;;;;;6.44;59.94;94962.44;5037828;28;20203;-73
2022/11/25 06:20:27;;;;;;;2.17;1.98;;;;;;;6.42;60.32;94966.63;5016774;28;20242;-72
2022/11/25 06:22:55;;;;;;;2.45;2.22;;;;;;;6.43;60.18;94968.25;5018120;28;20211;-72
2022/11/25 06:25:28;;;;;;;2.03;1.92;;;;;;;6.42;60.18;94966.63;5017044;28;20214;-72
2022/11/25 06:27:55;;;;;;;2.55;2.22;;;;;;;6.43;59.95;94969.06;5017538;28;20208;-73
2022/11/25 06:30:26;;;;;;;4.28;2.65;;;;;;;6.50;59.99;94976.75;5018390;28;20195;-73
2022/11/25 06:32:54;;;;;;;2.60;2.40;;;;;;;6.48;59.52;94988.03;5017153;28;20203;-73
2022/11/25 06:35:22;;;;;;;2.75;2.53;;;;;;;6.54;59.36;94985.94;5017099;28;20206;-72
2022/11/25 06:37:51;;;;;;;2.72;2.53;;;;;;;6.57;59.68;94993.47;5016925;28;20199;-72
2022/11/25 06:40:22;;;;;;;3.05;2.80;;;;;;;6.62;59.58;95004.25;5016503;28;20195;-73
2022/11/25 06:42:56;;;;;;;3.72;3.15;;;;;;;6.62;59.71;94993.31;5017406;28;20175;-73
2022/11/25 06:45:27;;;;;;;3.55;3.03;;;;;;;6.63;59.85;94996.84;5017637;28;20191;-72
2022/11/25 06:47:55;;;;;;;4.18;3.70;;;;;;;6.64;59.85;95001.97;5017404;28;20203;-73
2022/11/25 06:50:23;;;;;;;5.00;3.85;;;;;;;6.65;59.97;95003.59;5016506;28;20203;-72
2022/11/25 06:52:51;;;;;;;5.60;4.47;;;;;;;6.71;59.83;94998.72;5016767;28;20187;-72
2022/11/25 06:55:22;;;;;;;7.28;6.50;;;;;;;6.70;59.53;95005.34;5017202;28;20222;-73
2022/11/25 06:57:54;;;;;;;5.07;4.10;;;;;;;6.68;59.53;95002.94;5016479;28;20191;-72
2022/11/25 07:00:30;;;;;;;5.20;3.97;;;;;;;6.68;59.84;94994.72;5017117;28;20294;-72
2022/11/25 07:03:02;;;;;;;8.70;5.90;;;;;;;6.67;59.47;95001.31;5016233;28;20297;-72
2022/11/25 07:05:30;;;;;;;4.47;4.05;;;;;;;6.68;59.70;95008.44;5016408;28;20199;-73
2022/11/25 07:08:00;;;;;;;5.60;3.38;;;;;;;6.68;59.42;94997.47;5015805;28;20191;-72
2022/11/25 07:10:31;;;;;;;4.05;3.65;;;;;;;6.71;59.38;94995.97;5016662;28;20184;-73
2022/11/25 07:12:58;;;;;;;3.40;3.10;;;;;;;6.78;59.94;95007.25;5016613;28;20207;-73
2022/11/25 07:15:28;;;;;;;4.07;3.78;;;;;;;6.87;59.42;95005.28;5015672;28;20207;-73
2022/11/25 07:17:56;;;;;;;3.75;3.30;;;;;;;6.87;59.24;95001.72;5015953;28;20191;-72
2022/11/25 07:20:26;;;;;;;3.67;3.33;;;;;;;6.82;59.22;95007.38;5015583;28;20289;-72
2022/11/25 07:22:55;;;;;;;3.55;3.20;;;;;;;6.82;58.92;95012.88;5016585;28;20624;-72
2022/11/25 07:25:23;;;;;;;4.68;3.20;;;;;;;6.82;59.00;95018.34;5015477;28;20224;-72
2022/11/25 07:27:51;;;;;;;3.75;3.40;;;;;;;6.83;58.87;95018.03;5032241;28;20249;-72
2022/11/25 07:30:19;;;;;;;3.80;3.50;;;;;;;6.81;59.23;95014.00;5015613;28;20199;-72
2022/11/25 07:32:48;;;;;;;3.28;3.08;;;;;;;6.77;58.52;95008.38;5015982;28;20203;-72
2022/11/25 07:35:17;;;;;;;3.45;3.20;;;;;;;6.75;58.91;95019.69;5016165;28;20187;-72
2022/11/25 07:37:45;;;;;;;4.30;3.90;;;;;;;6.73;58.77;95019.19;5013551;28;20211;-72
2022/11/25 07:40:13;;;;;;;5.40;3.90;;;;;;;6.70;58.80;95014.38;5016358;28;20218;-72
2022/11/25 07:42:41;;;;;;;4.25;3.95;;;;;;;6.69;58.91;95017.47;5015998;28;20199;-72
2022/11/25 07:45:13;;;;;;;3.63;3.40;;;;;;;6.83;58.64;95025.47;5016041;28;20195;-72
2022/11/25 07:47:41;;;;;;;3.80;3.40;;;;;;;6.98;58.62;95020.22;5015860;28;20241;-72
2022/11/25 07:50:11;;;;;;;3.60;3.30;;;;;;;7.19;57.75;95025.75;5015385;28;20225;-72
2022/11/25 07:52:42;;;;;;;2.97;2.78;;;;;;;7.37;57.21;95028.34;5016194;28;20195;-72
2022/11/25 07:55:15;;;;;;;3.03;2.83;;;;;;;7.55;56.84;95021.59;5016217;28;20234;-72
2022/11/25 07:57:42;;;;;;;3.33;3.03;;;;;;;7.69;56.08;95027.63;5015207;28;20254;-72
2022/11/25 08:00:19;;;;;;;3.35;3.10;;;;;;;7.80;55.98;95033.50;5016072;28;20269;-72
2022/11/25 08:02:47;;;;;;;3.22;2.90;;;;;;;7.91;55.47;95036.66;5015163;28;20284;-72
2022/11/25 08:05:20;;;;;;;2.97;2.78;;;;;;;7.90;55.16;95029.56;5015053;28;20206;-72
2022/11/25 08:07:48;;;;;;;3.10;2.90;;;;;;;7.95;54.83;95046.66;5016038;28;20219;-72
2022/11/25 08:10:19;;;;;;;3.33;3.03;;;;;;;7.97;55.34;95043.53;5015805;28;20199;-72
2022/11/25 08:12:49;;;;;;;3.40;3.15;;;;;;;8.12;55.54;95040.16;5015899;28;20199;-72
2022/11/25 08:15:19;;;;;;;3.80;3.50;;;;;;;8.22;55.29;95038.16;5016154;28;20191;-72
2022/11/25 08:17:51;;;;;;;2.80;2.60;;;;;;;8.35;54.40;95040.59;5015955;28;20183;-72
2022/11/25 08:20:20;;;;;;;3.47;2.90;;;;;;;8.45;54.49;95039.38;5014644;28;20234;-72
2022/11/25 08:22:48;;;;;;;3.50;3.30;;;;;;;8.55;53.54;95052.69;5015811;28;20287;-72
2022/11/25 08:25:15;;;;;;;2.83;2.63;;;;;;;8.61;53.40;95045.84;5015743;28;20559;-72
2022/11/25 08:27:44;;;;;;;3.10;2.90;;;;;;;8.74;53.98;95054.91;5015816;28;20245;-72
2022/11/25 08:30:12;;;;;;;3.33;3.03;;;;;;;8.91;53.70;95053.91;5014754;28;20534;-72
2022/11/25 08:32:40;;;;;;;3.75;3.40;;;;;;;9.05;53.46;95057.13;5014418;28;20213;-72
2022/11/25 08:35:09;;;;;;;3.80;3.50;;;;;;;9.13;52.75;95056.19;5013974;28;20199;-72
2022/11/25 08:37:38;;;;;;;3.60;3.30;;;;;;;9.21;51.61;95065.50;5014615;28;20218;-73
2022/11/25 08:40:10;;;;;;;7.07;5.15;;;;;;;9.34;51.72;95061.59;5014499;28;20231;-72
2022/11/25 08:42:36;;;;;;;3.92;3.53;;;;;;;9.43;51.50;95061.47;5014214;28;20211;-72
2022/11/25 08:45:08;;;;;;;4.03;3.65;;;;;;;9.51;51.38;95063.28;5014825;28;20202;-72
2022/11/25 08:47:36;;;;;;;6.05;4.90;;;;;;;9.58;51.40;95068.22;5014598;28;20214;-72
2022/11/25 08:50:05;;;;;;;4.82;4.30;;;;;;;9.59;51.10;95064.31;5014630;28;20203;-72
2022/11/25 08:52:33;;;;;;;4.60;4.20;;;;;;;9.56;50.58;95060.31;5014421;28;20215;-72
2022/11/25 08:55:07;;;;;;;6.60;5.22;;;;;;;9.61;50.79;95057.31;5014241;28;20213;-72
2022/11/25 08:57:35;;;;;;;5.05;4.50;;;;;;;9.61;50.88;95051.78;5014487;28;20203;-72
2022/11/25 09:00:05;;;;;;;7.80;6.75;;;;;;;9.63;50.98;95055.03;5014467;28;20238;-73
2022/11/25 09:02:33;;;;;;;5.43;4.95;;;;;;;9.76;50.91;95053.03;5014468;28;20573;-72
2022/11/25 09:05:01;;;;;;;4.90;4.45;;;;;;;9.66;50.57;95059.03;5014966;28;20202;-72
2022/11/25 09:07:29;;;;;;;4.20;3.80;;;;;;;9.66;51.10;95050.78;5014469;28;20206;-72
2022/11/25 09:09:57;;;;;;;4.47;4.07;;;;;;;9.78;51.37;95064.50;5014075;28;20202;-72
2022/11/25 09:12:26;;;;;;;4.90;4.50;;;;;;;9.73;50.86;95064.75;5014268;28;20234;-72
2022/11/25 09:14:54;;;;;;;3.75;3.33;;;;;;;9.73;50.56;95051.00;5014333;28;20503;-72
2022/11/25 09:17:21;;;;;;;4.63;4.20;;;;;;;9.91;51.15;95047.94;5033181;28;20623;-73
2022/11/25 09:19:50;;;;;;;6.13;4.18;;;;;;;10.17;50.56;95048.31;5018725;28;20241;-73
2022/11/25 09:22:18;;;;;;;5.30;3.90;;;;;;;10.39;49.75;95055.25;5038494;28;20252;-72
2022/11/25 09:24:47;;;;;;;4.88;4.47;;;;;;;10.51;49.47;95054.41;5038761;28;20209;-72
2022/11/25 09:27:15;;;;;;;4.30;3.90;;;;;;;10.69;48.59;95050.16;5038644;28;20291;-72
2022/11/25 09:29:50;;;;;;;5.13;4.55;;;;;;;10.76;48.34;95052.31;5038441;28;20641;-72
2022/11/25 09:32:19;;;;;;;3.63;3.33;;;;;;;10.93;47.90;95049.22;5021156;28;20226;-73
2022/11/25 09:34:48;;;;;;;3.88;3.60;;;;;;;11.04;47.90;95053.03;5021017;28;20206;-73
2022/11/25 09:37:16;;;;;;;5.50;3.92;;;;;;;11.28;47.46;95052.03;5038394;28;20229;-75
2022/11/25 09:39:44;;;;;;;5.20;4.68;;;;;;;11.51;47.06;95060.47;5038456;28;20264;-73
2022/11/25 09:48:26;;;;;;;4.47;4.10;;;;;;;11.51;46.83;95056.88;5020740;28;20631;-72
2022/11/25 09:51:03;;;;;;;4.10;3.70;;;;;;;11.45;45.90;95061.91;5020755;28;20190;-72
2022/11/25 09:53:45;;;;;;;5.28;4.68;;;;;;;11.18;46.85;95055.31;5020830;28;20206;-72
2022/11/25 09:56:21;;;;;;;5.65;4.50;;;;;;;11.30;46.52;95059.97;5020394;28;20714;-72
2022/11/25 09:58:54;;;;;;;6.82;4.93;;;;;;;11.14;46.07;95061.91;5020716;28;20209;-73
2022/11/25 10:01:26;;;;;;;5.45;4.70;;;;;;;10.90;46.24;95060.94;5020269;28;20217;-72
2022/11/25 10:03:56;;;;;;;4.40;3.55;;;;;;;10.76;47.23;95066.91;5020380;28;20199;-72
2022/11/25 10:06:26;;;;;;;3.20;2.90;;;;;;;10.85;47.11;95048.19;5020568;28;20217;-72
2022/11/25 10:08:56;;;;;;;3.10;2.90;;;;;;;10.89;47.11;95058.53;5020114;28;20194;-72
2022/11/25 10:11:31;;;;;;;3.72;3.25;;;;;;;10.94;46.48;95063.81;5020608;28;20592;-72
2022/11/25 10:14:01;;;;;;;3.30;3.10;;;;;;;10.89;46.75;95053.00;5037091;28;20256;-72
2022/11/25 10:16:56;;;;;;;2.95;2.75;;;;;;;10.94;47.39;95055.53;5020239;28;20209;-72
2022/11/25 10:19:35;;;;;;;2.90;2.70;;;;;;;11.15;46.90;95061.59;5036992;28;20650;-72
2022/11/25 10:22:23;;;;;;;2.58;2.38;;;;;;;11.59;45.46;95058.69;5037124;28;20237;-72
2022/11/25 10:24:51;;;;;;;3.03;2.78;;;;;;;11.77;45.37;95054.34;5020363;28;20198;-72
2022/11/25 10:27:26;;;;;;;4.10;3.10;;;;;;;11.80;44.84;95053.63;5019769;28;20205;-72
2022/11/25 10:30:05;;;;;;;3.72;2.75;;;;;;;11.54;44.37;95056.97;5020101;28;20263;-72
2022/11/25 10:32:42;;;;;;;4.88;3.60;;;;;;;11.39;45.22;95048.72;5037091;28;20209;-72
2022/11/25 10:35:28;;;;;;;7.75;4.57;;;;;;;11.48;45.24;95058.44;5037448;28;20201;-72
2022/11/25 10:37:56;;;;;;;6.55;4.50;;;;;;;11.33;44.71;95046.25;5019895;28;20608;-72
2022/11/25 10:40:26;;;;;;;3.42;3.10;;;;;;;11.18;44.95;95046.25;5019703;28;20245;-73
2022/11/25 10:42:54;;;;;;;3.70;3.10;;;;;;;11.06;45.07;95049.91;5019946;28;20203;-72
2022/11/25 10:45:30;;;;;;;6.53;4.70;;;;;;;11.02;45.30;95043.50;5036541;28;20537;-72
2022/11/25 10:48:21;;;;;;;7.05;5.13;;;;;;;11.13;45.46;95060.31;5019848;28;20547;-72
2022/11/25 10:51:04;;;;;;;4.90;4.05;;;;;;;11.14;46.10;95054.44;5037130;28;20201;-72
2022/11/25 10:53:31;;;;;;;4.13;3.50;;;;;;;11.36;45.39;95057.72;5019698;28;20199;-72
2022/11/25 10:56:04;;;;;;;4.72;3.50;;;;;;;11.20;45.08;95054.97;5019689;28;20229;-72
2022/11/25 10:58:35;;;;;;;7.10;5.80;;;;;;;11.12;45.83;95062.28;5036427;28;20229;-72
2022/11/25 11:01:18;;;;;;;7.82;6.50;;;;;;;11.16;46.09;95070.66;5019311;28;20222;-70
2022/11/25 11:03:56;;;;;;;4.68;3.50;;;;;;;11.31;45.68;95062.34;5037123;28;20191;-69
2022/11/25 11:06:35;;;;;;;3.50;3.20;;;;;;;11.00;45.94;95073.41;5019513;28;20595;-69
2022/11/25 11:09:04;;;;;;;4.60;2.90;;;;;;;10.78;46.61;95072.88;5019924;28;20209;-70
2022/11/25 11:11:32;;;;;;;4.30;2.90;;;;;;;10.50;47.20;95074.88;5036540;28;20213;-69
2022/11/25 11:14:19;;;;;;;2.97;2.70;;;;;;;10.35;47.87;95096.53;5035813;28;20200;-69
2022/11/25 11:16:53;;;;;;;2.90;2.70;;;;;;;10.05;48.31;95092.44;5018832;28;20268;-69
2022/11/25 11:19:28;;;;;;;3.05;2.85;;;;;;;9.91;49.12;95097.53;5019103;28;20222;-69
2022/11/25 11:21:57;;;;;;;2.80;2.60;;;;;;;9.80;49.63;95098.03;5015860;28;20238;-69
2022/11/25 11:24:27;;;;;;;2.65;2.45;;;;;;;9.67;49.99;95095.63;5015751;28;20241;-70
2022/11/25 11:27:08;;;;;;;3.00;2.80;;;;;;;9.66;50.20;95094.84;5015535;28;20429;-70
2022/11/25 11:29:37;;;;;;;3.92;3.15;;;;;;;9.68;50.00;95095.28;5016668;28;20459;-72
2022/11/25 11:32:10;;;;;;;3.65;3.35;;;;;;;9.64;50.68;95086.91;5016379;28;20183;-70
2022/11/25 11:34:58;;;;;;;3.33;3.03;;;;;;;9.69;50.73;95085.84;5015697;28;20195;-70
2022/11/25 11:37:43;;;;;;;3.28;2.60;;;;;;;9.76;50.63;95094.34;5016309;28;20215;-69
2022/11/25 11:40:50;;;;;;;3.25;2.90;;;;;;;9.66;50.60;95094.84;5016143;28;20211;-69
2022/11/25 11:43:56;;;;;;;2.58;2.38;;;;;;;9.43;51.12;95111.00;5032014;28;20207;-69
2022/11/25 11:46:42;;;;;;;3.25;2.70;;;;;;;9.42;51.44;95098.41;5016046;28;20191;-69
2022/11/25 11:49:32;;;;;;;3.28;2.97;;;;;;;10.04;50.60;95096.34;5016303;28;20200;-70
2022/11/25 11:52:09;;;;;;;3.55;3.20;;;;;;;10.40;49.18;95092.72;5015518;28;20207;-69
2022/11/25 11:54:46;;;;;;;3.20;2.90;;;;;;;10.70;48.22;95089.56;5016000;28;20202;-69
2022/11/25 11:57:23;;;;;;;3.22;2.70;;;;;;;11.11;47.92;95088.31;5015464;28;20257;-70
2022/11/25 11:59:53;;;;;;;3.40;3.10;;;;;;;11.20;46.86;95093.63;5015490;28;20211;-70
2022/11/25 12:02:31;;;;;;;3.45;3.20;;;;;;;11.14;46.91;95103.31;5016023;28;20183;-70
2022/11/25 12:05:20;;;;;;;3.10;2.90;;;;;;;10.93;47.61;95081.50;5015490;28;20214;-70
2022/11/25 12:08:04;;;;;;;3.50;3.20;;;;;;;11.22;47.05;95091.31;5016299;28;20274;-70